Time;durP1;ratioP1;P1;durP2;ratioP2;P2;SDS_P1;SDS_P2;PMS_P1;PMS_P2;Temp;Humidity;BMP_temperature;BMP_pressure;BME280_temperature;BME280_humidity;BME280_pressure;Samples;Min_cycle;Max_cycle;Signal;HPM_P1;HPM_P2
2023/01/01 00:02:44;;;;;;;223.90;115.35;;;;;;;;;;6252205;28;20025;-77
2023/01/01 00:05:44;;;;;;;89.47;49.83;;;;;;;;;;6250157;28;20021;-78
2023/01/01 00:08:45;;;;;;;419.87;244.47;;;;;;;;;;6252929;28;20032;-77
2023/01/01 00:11:45;;;;;;;336.13;195.03;;;;;;;;;;6254735;28;20032;-78
2023/01/01 00:14:45;;;;;;;1191.50;571.73;;;;;;;;;;6252735;28;20108;-78
2023/01/01 00:17:45;;;;;;;294.63;154.57;;;;;;;;;;6269883;28;20044;-77
2023/01/01 00:20:46;;;;;;;179.93;100.43;;;;;;;;;;6273463;28;20021;-77
2023/01/01 00:23:46;;;;;;;57.03;33.37;;;;;;;;;;6272789;28;20020;-78
2023/01/01 00:26:46;;;;;;;81.73;43.70;;;;;;;;;;6250397;28;20021;-78
2023/01/01 00:29:46;;;;;;;52.30;28.85;;;;;;;;;;6271678;28;20025;-77
2023/01/01 00:32:46;;;;;;;57.33;32.47;;;;;;;;;;6252873;28;20021;-78
2023/01/01 00:35:47;;;;;;;86.53;44.27;;;;;;;;;;6246475;28;20044;-77
2023/01/01 00:38:47;;;;;;;64.77;34.60;;;;;;;;;;6264588;28;20013;-78
2023/01/01 00:41:47;;;;;;;54.07;29.87;;;;;;;;;;6266105;28;20017;-78
2023/01/01 00:44:47;;;;;;;298.40;143.83;;;;;;;;;;6252547;28;20013;-77
2023/01/01 00:47:48;;;;;;;392.73;197.63;;;;;;;;;;6249857;28;20116;-77
2023/01/01 00:50:49;;;;;;;57.37;30.93;;;;;;;;;;6270740;28;20116;-78
2023/01/01 00:53:49;;;;;;;183.50;90.00;;;;;;;;;;6253893;28;20020;-77
2023/01/01 00:56:50;;;;;;;84.07;43.60;;;;;;;;;;6253614;28;20528;-78
2023/01/01 00:59:50;;;;;;;159.00;75.07;;;;;;;;;;6254099;28;20017;-78
2023/01/01 01:02:50;;;;;;;61.10;32.70;;;;;;;;;;6253028;28;20052;-77
2023/01/01 01:05:50;;;;;;;101.97;52.63;;;;;;;;;;6253285;28;20025;-78
2023/01/01 01:08:50;;;;;;;54.47;30.20;;;;;;;;;;6251606;28;20028;-78
2023/01/01 01:11:51;;;;;;;182.30;84.20;;;;;;;;;;6270336;28;20057;-78
2023/01/01 01:14:51;;;;;;;52.47;29.70;;;;;;;;;;6270762;28;20158;-77
2023/01/01 01:17:51;;;;;;;54.00;29.87;;;;;;;;;;6256658;28;20051;-77
2023/01/01 01:20:52;;;;;;;123.00;59.77;;;;;;;;;;6249283;28;20104;-78
2023/01/01 01:23:53;;;;;;;62.70;34.33;;;;;;;;;;6252544;28;20017;-77
2023/01/01 01:26:54;;;;;;;56.20;33.23;;;;;;;;;;6271222;28;20013;-77
2023/01/01 01:29:54;;;;;;;58.47;32.23;;;;;;;;;;6248930;28;20017;-77
2023/01/01 01:32:54;;;;;;;61.70;31.47;;;;;;;;;;6270783;28;20013;-78
2023/01/01 01:35:54;;;;;;;160.57;70.43;;;;;;;;;;6270816;28;20032;-78
2023/01/01 01:38:55;;;;;;;167.87;68.50;;;;;;;;;;6268684;28;20627;-77
2023/01/01 01:41:55;;;;;;;64.17;34.23;;;;;;;;;;6268403;28;20025;-77
2023/01/01 01:44:56;;;;;;;78.10;38.77;;;;;;;;;;6247488;28;20021;-77
2023/01/01 01:47:57;;;;;;;70.97;38.78;;;;;;;;;;6268728;28;20021;-78
2023/01/01 01:50:58;;;;;;;91.43;46.10;;;;;;;;;;6269862;28;20021;-78
2023/01/01 01:54:00;;;;;;;116.67;57.03;;;;;;;;;;6270384;28;20020;-77
2023/01/01 01:57:02;;;;;;;60.67;33.78;;;;;;;;;;6252558;28;20025;-77
2023/01/01 02:00:03;;;;;;;68.20;34.55;;;;;;;;;;6265045;28;20039;-77
2023/01/01 02:03:15;;;;;;;70.57;38.60;;;;;;;;;;6252396;28;20005;-78
2023/01/01 02:06:16;;;;;;;121.57;62.53;;;;;;;;;;6270705;28;20021;-77
2023/01/01 02:09:17;;;;;;;131.80;65.77;;;;;;;;;;6250639;28;20032;-77
2023/01/01 02:12:17;;;;;;;180.40;85.57;;;;;;;;;;6252615;28;20385;-79
2023/01/01 02:15:17;;;;;;;68.33;38.60;;;;;;;;;;6269452;28;20021;-77
2023/01/01 02:18:37;;;;;;;63.67;34.43;;;;;;;;;;6267241;28;20492;-78
2023/01/01 02:21:38;;;;;;;62.38;34.33;;;;;;;;;;6250846;28;20031;-78
2023/01/01 02:24:38;;;;;;;116.15;60.58;;;;;;;;;;6255247;28;20024;-78
2023/01/01 02:27:44;;;;;;;127.53;64.20;;;;;;;;;;6249506;28;20079;-78
2023/01/01 02:30:45;;;;;;;118.53;57.03;;;;;;;;;;6255862;28;20017;-78
2023/01/01 02:33:46;;;;;;;68.87;38.03;;;;;;;;;;6272852;28;20400;-78
2023/01/01 02:36:48;;;;;;;98.67;52.33;;;;;;;;;;6252410;28;20047;-77
2023/01/01 02:39:56;;;;;;;68.95;35.40;;;;;;;;;;6253196;28;20025;-78
2023/01/01 02:42:57;;;;;;;67.35;37.05;;;;;;;;;;6274335;28;20024;-78
2023/01/01 02:45:57;;;;;;;72.20;42.50;;;;;;;;;;6276865;28;20016;-78
2023/01/01 02:48:58;;;;;;;117.87;60.07;;;;;;;;;;6248793;28;20024;-77
2023/01/01 02:52:14;;;;;;;96.63;51.63;;;;;;;;;;6255853;28;20052;-77
2023/01/01 02:55:14;;;;;;;91.75;52.17;;;;;;;;;;6273480;28;20036;-77
2023/01/01 03:01:38;;;;;;;80.28;43.83;;;;;;;;;;6272213;28;20473;-78
2023/01/01 03:04:47;;;;;;;72.28;43.30;;;;;;;;;;6254927;28;20131;-77
2023/01/01 03:07:58;;;;;;;116.30;62.35;;;;;;;;;;6272609;28;20032;-78
2023/01/01 03:11:03;;;;;;;97.43;49.88;;;;;;;;;;6271237;28;20036;-78
2023/01/01 03:14:07;;;;;;;90.95;47.78;;;;;;;;;;6254596;28;20025;-78
2023/01/01 03:17:17;;;;;;;77.63;41.08;;;;;;;;;;6255089;28;20448;-78
2023/01/01 03:20:21;;;;;;;91.80;50.00;;;;;;;;;;6254739;28;20635;-77
2023/01/01 03:23:25;;;;;;;94.57;50.25;;;;;;;;;;6273198;28;20489;-77
2023/01/01 03:26:26;;;;;;;78.00;41.20;;;;;;;;;;6254744;28;20289;-77
2023/01/01 03:29:28;;;;;;;77.07;37.20;;;;;;;;;;6272168;28;20465;-77
2023/01/01 03:35:59;;;;;;;74.22;37.45;;;;;;;;;;6272692;28;20064;-78
2023/01/01 03:39:20;;;;;;;65.07;34.95;;;;;;;;;;6271702;28;20444;-77
2023/01/01 03:42:32;;;;;;;67.60;37.58;;;;;;;;;;6253687;28;20032;-77
2023/01/01 03:45:36;;;;;;;75.00;36.50;;;;;;;;;;6243946;28;20173;-78
2023/01/01 03:48:55;;;;;;;66.28;37.45;;;;;;;;;;6272654;28;20416;-77
2023/01/01 03:52:14;;;;;;;75.22;38.75;;;;;;;;;;6254213;28;20419;-78
2023/01/01 03:55:16;;;;;;;80.65;39.03;;;;;;;;;;6254814;28;20062;-77
2023/01/01 03:58:24;;;;;;;75.03;38.15;;;;;;;;;;6254371;28;20021;-77
2023/01/01 04:01:40;;;;;;;80.72;41.75;;;;;;;;;;6271753;28;20032;-78
2023/01/01 04:04:40;;;;;;;71.05;37.80;;;;;;;;;;6259000;28;20021;-77
2023/01/01 04:07:40;;;;;;;56.27;27.50;;;;;;;;;;6253862;28;20106;-77
2023/01/01 04:10:43;;;;;;;74.97;43.40;;;;;;;;;;6271560;28;20415;-77
2023/01/01 04:13:46;;;;;;;85.05;44.08;;;;;;;;;;6271591;28;20043;-78
2023/01/01 04:16:46;;;;;;;87.25;47.25;;;;;;;;;;6268356;28;20037;-77
2023/01/01 04:19:47;;;;;;;92.03;44.47;;;;;;;;;;6271350;28;20071;-77
2023/01/01 04:22:47;;;;;;;88.55;43.53;;;;;;;;;;6271416;28;20480;-77
2023/01/01 04:25:47;;;;;;;88.53;45.93;;;;;;;;;;6252969;28;20151;-77
2023/01/01 04:28:47;;;;;;;81.47;42.45;;;;;;;;;;6270472;28;20158;-78
2023/01/01 04:31:48;;;;;;;83.67;46.03;;;;;;;;;;6248353;28;20146;-78
2023/01/01 04:34:48;;;;;;;79.13;44.40;;;;;;;;;;6251572;28;20385;-77
2023/01/01 04:37:48;;;;;;;75.47;39.40;;;;;;;;;;6253141;28;20021;-77
2023/01/01 04:40:58;;;;;;;72.97;39.23;;;;;;;;;;6252698;28;20021;-78
2023/01/01 04:43:59;;;;;;;75.47;36.47;;;;;;;;;;6253202;28;20024;-78
2023/01/01 04:46:59;;;;;;;67.20;37.33;;;;;;;;;;6249792;28;20021;-78
2023/01/01 04:49:59;;;;;;;65.27;34.60;;;;;;;;;;6270817;28;20100;-77
2023/01/01 04:52:59;;;;;;;65.03;35.57;;;;;;;;;;6253904;28;20078;-77
2023/01/01 04:56:06;;;;;;;59.10;33.78;;;;;;;;;;6271090;28;20029;-77
2023/01/01 04:59:07;;;;;;;67.05;36.85;;;;;;;;;;6270951;28;20027;-78
2023/01/01 05:02:07;;;;;;;81.37;39.40;;;;;;;;;;6270847;28;20017;-78
2023/01/01 05:05:07;;;;;;;56.45;31.77;;;;;;;;;;6268966;28;20021;-78
2023/01/01 05:08:07;;;;;;;59.33;32.83;;;;;;;;;;6251914;28;20028;-77
2023/01/01 05:11:28;;;;;;;60.30;34.50;;;;;;;;;;6252133;28;20017;-77
2023/01/01 05:14:28;;;;;;;67.60;37.28;;;;;;;;;;6251645;28;20063;-78
2023/01/01 05:17:28;;;;;;;64.20;37.27;;;;;;;;;;6265516;28;20620;-78
2023/01/01 05:20:28;;;;;;;61.27;34.13;;;;;;;;;;6252578;28;20021;-77
2023/01/01 05:23:29;;;;;;;64.10;35.47;;;;;;;;;;6250996;28;20044;-77
2023/01/01 05:26:47;;;;;;;66.30;37.03;;;;;;;;;;6252468;28;20025;-77
2023/01/01 05:29:47;;;;;;;66.05;34.75;;;;;;;;;;6271070;28;20016;-77
2023/01/01 05:32:47;;;;;;;67.38;35.63;;;;;;;;;;6252990;28;20095;-77
2023/01/01 05:35:52;;;;;;;67.10;34.97;;;;;;;;;;6252785;28;20089;-77
2023/01/01 05:38:52;;;;;;;63.50;34.83;;;;;;;;;;6251341;28;20163;-78
2023/01/01 05:41:52;;;;;;;59.53;32.50;;;;;;;;;;6252967;28;20479;-78
2023/01/01 05:44:52;;;;;;;61.90;31.10;;;;;;;;;;6249379;28;20017;-77
2023/01/01 05:47:53;;;;;;;61.75;33.45;;;;;;;;;;6271140;28;20025;-78
2023/01/01 05:50:53;;;;;;;59.13;32.13;;;;;;;;;;6251505;28;20290;-78
2023/01/01 05:53:54;;;;;;;54.00;30.43;;;;;;;;;;6251945;28;20027;-77
2023/01/01 05:56:54;;;;;;;61.63;28.83;;;;;;;;;;6252225;28;20021;-78
2023/01/01 05:59:54;;;;;;;51.33;30.30;;;;;;;;;;6255775;28;20021;-77
2023/01/01 06:02:54;;;;;;;64.43;34.80;;;;;;;;;;6270982;28;20013;-78
2023/01/01 06:05:54;;;;;;;72.10;38.53;;;;;;;;;;6274762;28;20021;-78
2023/01/01 06:08:59;;;;;;;51.23;28.77;;;;;;;;;;6255903;28;20043;-78
2023/01/01 06:11:59;;;;;;;58.78;34.70;;;;;;;;;;6252895;28;20021;-77
2023/01/01 06:14:59;;;;;;;51.40;31.07;;;;;;;;;;6254274;28;20083;-78
2023/01/01 06:17:59;;;;;;;46.83;26.13;;;;;;;;;;6266549;28;20410;-78
2023/01/01 06:21:04;;;;;;;43.42;25.63;;;;;;;;;;6274326;28;20123;-80
2023/01/01 06:24:04;;;;;;;56.58;28.90;;;;;;;;;;6256603;28;20480;-78
2023/01/01 06:27:05;;;;;;;83.00;34.90;;;;;;;;;;6256267;28;20036;-78
2023/01/01 06:30:06;;;;;;;46.05;23.23;;;;;;;;;;6250996;28;20540;-77
2023/01/01 06:33:06;;;;;;;46.80;20.80;;;;;;;;;;6274316;28;20040;-77
2023/01/01 06:36:08;;;;;;;36.23;21.03;;;;;;;;;;6271966;28;20456;-77
2023/01/01 06:39:08;;;;;;;28.63;14.73;;;;;;;;;;6254772;28;20025;-77
2023/01/01 06:42:08;;;;;;;29.80;15.27;;;;;;;;;;6255239;28;20024;-76
2023/01/01 06:45:09;;;;;;;20.65;12.88;;;;;;;;;;6271718;28;20049;-76
2023/01/01 06:48:09;;;;;;;21.83;11.40;;;;;;;;;;6272828;28;20433;-76
2023/01/01 06:51:10;;;;;;;16.95;10.20;;;;;;;;;;6273312;28;20102;-77
2023/01/01 06:54:11;;;;;;;16.27;10.32;;;;;;;;;;6250243;28;20031;-76
2023/01/01 06:57:11;;;;;;;17.50;7.97;;;;;;;;;;6247492;28;20414;-77
2023/01/01 07:00:11;;;;;;;13.77;7.65;;;;;;;;;;6272539;28;20388;-77
2023/01/01 07:03:12;;;;;;;18.33;8.17;;;;;;;;;;6273213;28;20107;-76
2023/01/01 07:06:12;;;;;;;17.83;8.83;;;;;;;;;;6271382;28;20036;-77
2023/01/01 07:09:12;;;;;;;16.00;7.88;;;;;;;;;;6250510;28;20032;-77
2023/01/01 07:12:12;;;;;;;16.50;8.20;;;;;;;;;;6272368;28;20021;-77
2023/01/01 07:15:13;;;;;;;11.63;6.67;;;;;;;;;;6241508;28;20075;-76
2023/01/01 07:18:13;;;;;;;14.37;8.27;;;;;;;;;;6252242;28;20061;-77
2023/01/01 07:21:25;;;;;;;14.55;6.43;;;;;;;;;;6251153;28;20405;-76
2023/01/01 07:24:25;;;;;;;13.82;6.55;;;;;;;;;;6253838;28;20023;-77
2023/01/01 07:27:25;;;;;;;14.10;7.57;;;;;;;;;;6272567;28;20033;-77
2023/01/01 07:30:25;;;;;;;17.17;10.00;;;;;;;;;;6271539;28;20040;-77
2023/01/01 07:33:25;;;;;;;21.80;10.53;;;;;;;;;;6255434;28;20025;-77
2023/01/01 07:36:25;;;;;;;25.20;14.23;;;;;;;;;;6252034;28;20056;-77
2023/01/01 07:39:26;;;;;;;19.43;10.63;;;;;;;;;;6252857;28;20020;-77
2023/01/01 07:42:26;;;;;;;19.17;9.13;;;;;;;;;;6272377;28;20017;-78
2023/01/01 07:45:26;;;;;;;18.30;10.33;;;;;;;;;;6249415;28;20020;-76
2023/01/01 07:48:27;;;;;;;17.23;9.43;;;;;;;;;;6254985;28;20298;-76
2023/01/01 07:51:27;;;;;;;26.80;13.77;;;;;;;;;;6272864;28;20021;-76
2023/01/01 07:54:27;;;;;;;16.07;8.83;;;;;;;;;;6272872;28;20031;-78
2023/01/01 07:57:27;;;;;;;25.53;12.77;;;;;;;;;;6252310;28;20036;-77
2023/01/01 08:00:27;;;;;;;26.70;13.50;;;;;;;;;;6271198;28;20023;-77
2023/01/01 08:03:28;;;;;;;24.10;12.87;;;;;;;;;;6271913;28;20099;-77
2023/01/01 08:06:28;;;;;;;21.30;10.52;;;;;;;;;;6271881;28;20017;-77
2023/01/01 08:09:28;;;;;;;18.88;9.82;;;;;;;;;;6270621;28;20032;-76
2023/01/01 08:12:28;;;;;;;23.92;9.85;;;;;;;;;;6253983;28;20399;-77
2023/01/01 08:15:29;;;;;;;20.07;10.57;;;;;;;;;;6253578;28;20024;-77
2023/01/01 08:18:29;;;;;;;24.50;13.67;;;;;;;;;;6253895;28;20158;-77
2023/01/01 08:21:29;;;;;;;27.00;14.50;;;;;;;;;;6269637;28;20017;-77
2023/01/01 08:24:29;;;;;;;29.63;16.00;;;;;;;;;;6254048;28;20028;-76
2023/01/01 08:27:30;;;;;;;38.77;17.30;;;;;;;;;;6253693;28;20085;-77
2023/01/01 08:30:30;;;;;;;25.07;12.60;;;;;;;;;;6251931;28;20433;-77
2023/01/01 08:33:30;;;;;;;21.37;11.50;;;;;;;;;;6242037;28;20060;-77
2023/01/01 08:36:30;;;;;;;20.10;11.23;;;;;;;;;;6250432;28;20023;-77
2023/01/01 08:39:30;;;;;;;18.77;10.50;;;;;;;;;;6249300;28;20028;-77
2023/01/01 08:42:31;;;;;;;17.33;9.63;;;;;;;;;;6266789;28;20024;-77
2023/01/01 08:45:31;;;;;;;17.37;9.93;;;;;;;;;;6250614;28;20013;-77
2023/01/01 08:48:31;;;;;;;18.55;11.50;;;;;;;;;;6271242;28;20045;-76
2023/01/01 08:51:31;;;;;;;20.83;11.20;;;;;;;;;;6250474;28;20385;-77
2023/01/01 08:54:32;;;;;;;22.87;12.67;;;;;;;;;;6247102;28;20365;-77
2023/01/01 08:57:32;;;;;;;34.03;20.10;;;;;;;;;;6242474;28;20462;-77
2023/01/01 09:00:32;;;;;;;33.30;18.30;;;;;;;;;;6245617;28;20032;-77
2023/01/01 09:03:32;;;;;;;24.70;14.73;;;;;;;;;;6249252;28;20013;-77
2023/01/01 09:06:33;;;;;;;24.00;12.43;;;;;;;;;;6265073;28;20084;-77
2023/01/01 09:09:33;;;;;;;24.73;14.63;;;;;;;;;;6241950;28;20088;-77
2023/01/01 09:12:33;;;;;;;19.20;11.90;;;;;;;;;;6250323;28;20460;-77
2023/01/01 09:15:33;;;;;;;20.43;9.43;;;;;;;;;;6268950;28;20060;-77
2023/01/01 09:18:34;;;;;;;21.63;9.50;;;;;;;;;;6270656;28;20024;-77
2023/01/01 09:21:34;;;;;;;18.63;10.50;;;;;;;;;;6251927;28;20028;-77
2023/01/01 09:24:34;;;;;;;19.48;10.50;;;;;;;;;;6268088;28;20070;-77
2023/01/01 09:27:34;;;;;;;18.97;9.70;;;;;;;;;;6267904;28;20096;-77
2023/01/01 09:30:35;;;;;;;17.63;8.47;;;;;;;;;;6270392;28;20112;-77
2023/01/01 09:33:35;;;;;;;16.47;9.30;;;;;;;;;;6272571;28;20029;-77
2023/01/01 09:36:35;;;;;;;17.77;8.73;;;;;;;;;;6254878;28;20033;-77
2023/01/01 09:39:35;;;;;;;15.30;7.80;;;;;;;;;;6274445;28;20543;-77
2023/01/01 09:42:46;;;;;;;16.40;8.73;;;;;;;;;;6273464;28;20548;-78
2023/01/01 09:45:49;;;;;;;15.13;8.05;;;;;;;;;;6253177;28;20025;-77
2023/01/01 09:48:53;;;;;;;12.57;6.70;;;;;;;;;;6255989;28;20055;-77
2023/01/01 09:51:54;;;;;;;13.65;6.88;;;;;;;;;;6272121;28;20024;-78
2023/01/01 09:54:57;;;;;;;10.38;6.05;;;;;;;;;;6254587;28;20481;-77
2023/01/01 09:57:58;;;;;;;8.75;5.80;;;;;;;;;;6253778;28;20025;-77
2023/01/01 10:01:09;;;;;;;8.63;5.73;;;;;;;;;;6255247;28;20083;-77
2023/01/01 10:04:09;;;;;;;10.10;5.43;;;;;;;;;;6252975;28;20420;-77
2023/01/01 10:07:09;;;;;;;12.53;6.73;;;;;;;;;;6274439;28;20063;-77
2023/01/01 10:10:33;;;;;;;11.63;6.55;;;;;;;;;;6274426;28;20033;-77
2023/01/01 10:13:41;;;;;;;10.25;5.63;;;;;;;;;;6268486;28;20025;-77
2023/01/01 10:16:43;;;;;;;10.68;6.10;;;;;;;;;;6274470;28;20048;-77
2023/01/01 10:19:46;;;;;;;9.00;4.53;;;;;;;;;;6276105;28;20017;-76
2023/01/01 10:22:49;;;;;;;10.05;5.10;;;;;;;;;;6256214;28;20021;-76
2023/01/01 10:25:50;;;;;;;9.40;5.40;;;;;;;;;;6256670;28;20024;-77
2023/01/01 10:28:57;;;;;;;7.57;4.73;;;;;;;;;;6256891;28;20029;-78
2023/01/01 10:32:03;;;;;;;9.75;5.40;;;;;;;;;;6255983;28;20093;-77
2023/01/01 10:35:11;;;;;;;9.85;5.80;;;;;;;;;;6272562;28;20469;-77
2023/01/01 10:38:18;;;;;;;8.38;4.85;;;;;;;;;;6271813;28;20115;-76
2023/01/01 10:41:18;;;;;;;10.55;6.10;;;;;;;;;;6255308;28;20104;-77
2023/01/01 10:44:29;;;;;;;9.87;5.20;;;;;;;;;;6251882;28;20589;-77
2023/01/01 10:47:29;;;;;;;10.40;6.10;;;;;;;;;;6271739;28;20024;-77
2023/01/01 10:50:40;;;;;;;12.07;5.33;;;;;;;;;;6272761;28;20021;-77
2023/01/01 10:53:42;;;;;;;9.82;5.68;;;;;;;;;;6267974;28;20032;-77
2023/01/01 10:56:42;;;;;;;12.05;6.20;;;;;;;;;;6254489;28;20120;-77
2023/01/01 10:59:43;;;;;;;8.93;5.00;;;;;;;;;;6272560;28;20035;-77
2023/01/01 11:02:43;;;;;;;9.60;5.20;;;;;;;;;;6268659;28;20013;-76
2023/01/01 11:06:12;;;;;;;9.02;6.03;;;;;;;;;;6269110;28;20017;-77
2023/01/01 11:09:25;;;;;;;8.60;4.80;;;;;;;;;;6253091;28;20037;-76
2023/01/01 11:12:28;;;;;;;8.70;4.93;;;;;;;;;;6271140;28;20024;-76
2023/01/01 11:15:38;;;;;;;9.68;5.70;;;;;;;;;;6253429;28;20112;-75
2023/01/01 11:18:39;;;;;;;8.03;4.20;;;;;;;;;;6247897;28;20021;-76
2023/01/01 11:21:45;;;;;;;8.93;4.67;;;;;;;;;;6266690;28;20082;-76
2023/01/01 11:24:58;;;;;;;7.15;4.60;;;;;;;;;;6252261;28;20043;-76
2023/01/01 11:28:16;;;;;;;12.00;5.35;;;;;;;;;;6253493;28;20087;-75
2023/01/01 11:31:18;;;;;;;9.75;5.50;;;;;;;;;;6265086;28;20116;-76
2023/01/01 11:34:25;;;;;;;14.43;6.22;;;;;;;;;;6269322;28;20021;-75
2023/01/01 11:37:32;;;;;;;11.45;5.85;;;;;;;;;;6270276;28;20122;-74
2023/01/01 11:40:35;;;;;;;10.68;5.38;;;;;;;;;;6269333;28;20025;-74
2023/01/01 11:43:42;;;;;;;11.95;5.90;;;;;;;;;;6266077;28;20546;-76
2023/01/01 11:46:44;;;;;;;12.18;5.38;;;;;;;;;;6250698;28;20035;-75
2023/01/01 11:49:45;;;;;;;10.93;5.38;;;;;;;;;;6250629;28;20094;-74
2023/01/01 11:52:47;;;;;;;13.15;6.07;;;;;;;;;;6269701;28;20017;-74
2023/01/01 11:55:52;;;;;;;10.90;4.95;;;;;;;;;;6251077;28;20459;-74
2023/01/01 11:58:53;;;;;;;10.80;5.45;;;;;;;;;;6268910;28;20013;-74
2023/01/01 12:01:57;;;;;;;10.57;6.20;;;;;;;;;;6269453;28;20024;-74
2023/01/01 12:05:04;;;;;;;8.25;4.65;;;;;;;;;;6268274;28;20112;-74
2023/01/01 12:08:08;;;;;;;9.45;5.20;;;;;;;;;;6250958;28;20021;-74
2023/01/01 12:11:16;;;;;;;9.40;5.55;;;;;;;;;;6268780;28;20381;-73
2023/01/01 12:14:16;;;;;;;10.30;4.90;;;;;;;;;;6267941;28;20021;-74
2023/01/01 12:17:30;;;;;;;9.65;3.83;;;;;;;;;;6249787;28;20090;-74
2023/01/01 12:20:36;;;;;;;10.00;4.07;;;;;;;;;;6268890;28;20048;-75
2023/01/01 12:23:36;;;;;;;11.70;4.32;;;;;;;;;;6260176;28;20013;-74
2023/01/01 12:26:59;;;;;;;8.60;3.87;;;;;;;;;;6267881;28;20029;-75
2023/01/01 12:30:18;;;;;;;7.68;3.85;;;;;;;;;;6265215;28;20032;-75
2023/01/01 12:33:37;;;;;;;6.13;3.88;;;;;;;;;;6266546;28;20029;-75
2023/01/01 12:36:44;;;;;;;9.70;4.75;;;;;;;;;;6264046;28;20520;-74
2023/01/01 12:39:56;;;;;;;8.68;5.18;;;;;;;;;;6250863;28;20473;-74
2023/01/01 12:43:01;;;;;;;11.35;4.90;;;;;;;;;;6248161;28;20020;-74
2023/01/01 12:46:01;;;;;;;14.57;8.07;;;;;;;;;;6243696;28;20467;-74
2023/01/01 12:49:20;;;;;;;10.60;5.17;;;;;;;;;;6244420;28;20017;-74
2023/01/01 12:52:39;;;;;;;12.00;5.95;;;;;;;;;;6265434;28;20040;-74
2023/01/01 12:55:58;;;;;;;11.98;6.20;;;;;;;;;;6242200;28;20023;-74
2023/01/01 12:59:04;;;;;;;8.80;5.03;;;;;;;;;;6264052;28;20043;-74
2023/01/01 13:02:17;;;;;;;11.15;6.03;;;;;;;;;;6236520;28;20123;-74
2023/01/01 13:05:21;;;;;;;9.52;5.30;;;;;;;;;;6264454;28;20029;-74
2023/01/01 13:08:21;;;;;;;9.90;5.05;;;;;;;;;;6264761;28;20021;-74
2023/01/01 13:11:24;;;;;;;12.40;6.07;;;;;;;;;;6248293;28;20021;-74
2023/01/01 13:14:24;;;;;;;15.30;6.55;;;;;;;;;;6248844;28;20057;-74
2023/01/01 13:17:26;;;;;;;12.83;6.33;;;;;;;;;;6267871;28;20045;-74
2023/01/01 13:20:27;;;;;;;11.30;6.80;;;;;;;;;;6250532;28;20459;-74
2023/01/01 13:23:27;;;;;;;15.53;7.50;;;;;;;;;;6246392;28;20052;-74
2023/01/01 13:26:27;;;;;;;12.18;6.22;;;;;;;;;;6264804;28;20524;-74
2023/01/01 13:29:31;;;;;;;12.15;6.85;;;;;;;;;;6267383;28;20032;-74
2023/01/01 13:32:51;;;;;;;10.85;5.90;;;;;;;;;;6266504;28;20033;-74
2023/01/01 13:36:13;;;;;;;10.32;6.10;;;;;;;;;;6266743;28;20028;-74
2023/01/01 13:39:13;;;;;;;;;;;;;;;;;;6261787;28;20320;-74
2023/01/01 13:42:32;;;;;;;12.38;6.18;;;;;;;;;;6265357;28;19913;-74
2023/01/01 13:45:42;;;;;;;11.77;5.10;;;;;;;;;;6263447;28;20124;-74
2023/01/01 13:49:02;;;;;;;11.23;4.05;;;;;;;;;;6268167;28;20036;-74
2023/01/01 13:52:27;;;;;;;13.13;6.82;;;;;;;;;;6238602;28;20036;-74
2023/01/01 13:55:37;;;;;;;14.82;8.18;;;;;;;;;;6266318;28;20036;-74
2023/01/01 13:59:01;;;;;;;12.30;6.47;;;;;;;;;;6262469;28;20027;-74
2023/01/01 14:02:01;;;;;;;17.23;8.32;;;;;;;;;;6265431;28;20029;-74
2023/01/01 14:05:25;;;;;;;16.93;8.07;;;;;;;;;;6261586;28;20021;-75
2023/01/01 14:08:25;;;;;;;20.70;10.88;;;;;;;;;;6236398;28;20120;-74
2023/01/01 14:11:26;;;;;;;17.60;8.93;;;;;;;;;;6248604;28;20025;-74
2023/01/01 14:14:27;;;;;;;15.80;8.75;;;;;;;;;;6267269;28;20500;-74
2023/01/01 14:17:27;;;;;;;15.93;8.25;;;;;;;;;;6267724;28;20045;-74
2023/01/01 14:20:34;;;;;;;15.57;7.93;;;;;;;;;;6268912;28;20504;-74
2023/01/01 14:23:35;;;;;;;14.43;7.72;;;;;;;;;;6254184;28;20029;-74
2023/01/01 14:26:36;;;;;;;14.82;6.38;;;;;;;;;;6254407;28;20053;-74
2023/01/01 14:29:37;;;;;;;14.88;6.57;;;;;;;;;;6253673;28;20489;-74
2023/01/01 14:32:37;;;;;;;9.73;5.10;;;;;;;;;;6271856;28;20036;-74
2023/01/01 14:35:37;;;;;;;13.23;7.25;;;;;;;;;;6272486;28;20017;-74
2023/01/01 14:38:41;;;;;;;13.20;7.10;;;;;;;;;;6271696;28;20031;-74
2023/01/01 14:41:41;;;;;;;16.45;8.50;;;;;;;;;;6272142;28;20550;-74
2023/01/01 14:44:43;;;;;;;13.40;7.63;;;;;;;;;;6251563;28;20013;-75
2023/01/01 14:47:51;;;;;;;17.15;8.35;;;;;;;;;;6270331;28;20102;-73
2023/01/01 14:50:52;;;;;;;26.50;14.18;;;;;;;;;;6239382;28;20013;-72
2023/01/01 14:53:54;;;;;;;26.27;15.70;;;;;;;;;;6269377;28;20035;-73
2023/01/01 14:56:54;;;;;;;18.88;8.98;;;;;;;;;;6271238;28;20096;-72
2023/01/01 14:59:55;;;;;;;14.43;8.53;;;;;;;;;;6266923;28;20043;-72
2023/01/01 15:03:03;;;;;;;17.20;9.17;;;;;;;;;;6252959;28;20017;-74
2023/01/01 15:06:06;;;;;;;19.08;10.88;;;;;;;;;;6253047;28;20491;-73
2023/01/01 15:09:09;;;;;;;21.25;11.07;;;;;;;;;;6271110;28;20005;-73
2023/01/01 15:12:11;;;;;;;16.80;8.93;;;;;;;;;;6269022;28;20021;-73
2023/01/01 15:15:30;;;;;;;18.23;10.43;;;;;;;;;;6252373;28;20069;-73
2023/01/01 15:18:33;;;;;;;25.80;12.80;;;;;;;;;;6219403;28;20075;-73
2023/01/01 15:21:41;;;;;;;25.27;13.45;;;;;;;;;;6216518;28;20032;-73
2023/01/01 15:24:43;;;;;;;21.75;10.80;;;;;;;;;;6216631;28;20022;-73
2023/01/01 15:27:47;;;;;;;18.77;11.80;;;;;;;;;;6216757;28;20036;-74
2023/01/01 15:30:51;;;;;;;33.28;17.67;;;;;;;;;;6217849;28;20095;-73
2023/01/01 15:33:52;;;;;;;27.67;12.27;;;;;;;;;;6219428;28;20021;-74
2023/01/01 15:36:53;;;;;;;24.00;12.07;;;;;;;;;;6216629;28;20026;-72
2023/01/01 15:39:58;;;;;;;22.67;11.18;;;;;;;;;;6216908;28;20039;-73
2023/01/01 15:42:58;;;;;;;22.83;10.75;;;;;;;;;;6217558;28;20072;-73
2023/01/01 15:46:09;;;;;;;17.10;9.65;;;;;;;;;;6220163;28;20018;-73
2023/01/01 15:49:26;;;;;;;21.17;10.10;;;;;;;;;;6219677;28;20383;-73
2023/01/01 15:52:26;;;;;;;21.50;9.98;;;;;;;;;;6208615;28;20394;-73
2023/01/01 15:55:32;;;;;;;22.73;11.67;;;;;;;;;;6219547;28;20030;-73
2023/01/01 15:58:36;;;;;;;27.88;12.70;;;;;;;;;;6211983;28;20472;-73
2023/01/01 16:01:38;;;;;;;22.02;12.45;;;;;;;;;;6218339;28;20014;-73
2023/01/01 16:04:39;;;;;;;19.88;10.88;;;;;;;;;;6218508;28;20033;-73
2023/01/01 16:07:39;;;;;;;20.80;11.75;;;;;;;;;;6215640;28;20018;-72
2023/01/01 16:10:39;;;;;;;24.00;10.73;;;;;;;;;;6214375;28;20048;-73
2023/01/01 16:13:39;;;;;;;22.53;12.30;;;;;;;;;;6214654;28;20545;-73
2023/01/01 16:16:42;;;;;;;22.10;12.20;;;;;;;;;;6240868;28;20094;-73
2023/01/01 16:19:42;;;;;;;29.83;14.18;;;;;;;;;;6266276;28;20021;-73
2023/01/01 16:22:43;;;;;;;22.67;13.17;;;;;;;;;;6249457;28;20393;-73
2023/01/01 16:25:43;;;;;;;20.60;12.83;;;;;;;;;;6268333;28;20071;-73
2023/01/01 16:28:43;;;;;;;28.30;14.80;;;;;;;;;;6266997;28;20028;-73
2023/01/01 16:31:46;;;;;;;32.97;14.75;;;;;;;;;;6266623;28;20532;-73
2023/01/01 16:34:47;;;;;;;31.60;16.95;;;;;;;;;;6248158;28;20032;-73
2023/01/01 16:37:47;;;;;;;26.40;13.87;;;;;;;;;;6245042;28;20392;-73
2023/01/01 16:40:49;;;;;;;25.37;13.13;;;;;;;;;;6248435;28;20564;-74
2023/01/01 16:43:49;;;;;;;21.35;12.15;;;;;;;;;;6245236;28;20062;-73
2023/01/01 16:46:50;;;;;;;26.27;13.37;;;;;;;;;;6246842;28;20025;-73
2023/01/01 16:49:50;;;;;;;28.93;14.57;;;;;;;;;;6267844;28;20051;-74
2023/01/01 16:52:50;;;;;;;65.67;34.23;;;;;;;;;;6266874;28;20063;-73
2023/01/01 16:55:50;;;;;;;51.22;26.98;;;;;;;;;;6267905;28;20380;-73
2023/01/01 16:58:53;;;;;;;86.53;35.03;;;;;;;;;;6243979;28;20017;-73
2023/01/01 17:01:53;;;;;;;69.10;29.42;;;;;;;;;;6267403;28;20504;-73
2023/01/01 17:04:53;;;;;;;51.53;20.10;;;;;;;;;;6266455;28;20021;-73
2023/01/01 17:07:53;;;;;;;38.67;18.93;;;;;;;;;;6250180;28;20017;-73
2023/01/01 17:11:04;;;;;;;30.83;16.47;;;;;;;;;;6245170;28;20017;-74
2023/01/01 17:14:05;;;;;;;25.50;14.47;;;;;;;;;;6261107;28;20400;-73
2023/01/01 17:17:05;;;;;;;28.37;16.20;;;;;;;;;;6267423;28;20327;-74
2023/01/01 17:20:05;;;;;;;24.75;12.88;;;;;;;;;;6267810;28;20124;-73
2023/01/01 17:23:05;;;;;;;29.30;16.20;;;;;;;;;;6265510;28;20020;-74
2023/01/01 17:26:07;;;;;;;26.48;15.13;;;;;;;;;;6267700;28;20437;-74
2023/01/01 17:29:08;;;;;;;38.28;21.65;;;;;;;;;;6267598;28;20067;-73
2023/01/01 17:32:08;;;;;;;47.23;24.57;;;;;;;;;;6249941;28;20487;-74
2023/01/01 17:35:08;;;;;;;55.50;28.43;;;;;;;;;;6247967;28;20031;-74
2023/01/01 17:38:08;;;;;;;58.37;31.40;;;;;;;;;;6240196;28;20036;-74
2023/01/01 17:41:10;;;;;;;57.33;30.10;;;;;;;;;;6267208;28;20025;-73
2023/01/01 17:44:10;;;;;;;55.03;32.78;;;;;;;;;;6262040;28;20051;-72
2023/01/01 17:47:11;;;;;;;47.53;26.10;;;;;;;;;;6261742;28;20025;-73
2023/01/01 17:50:11;;;;;;;37.40;23.03;;;;;;;;;;6248939;28;20024;-73
2023/01/01 17:53:11;;;;;;;43.03;21.83;;;;;;;;;;6267600;28;20476;-74
2023/01/01 17:56:13;;;;;;;41.30;22.93;;;;;;;;;;6270445;28;20025;-73
2023/01/01 17:59:13;;;;;;;;;;;;;;;;;;6273620;28;20021;-74
2023/01/01 18:02:13;;;;;;;35.97;20.45;;;;;;;;;;6269583;28;19919;-74